sensor_id;sensor_type;location;lat;lon;timestamp;P1;durP1;ratioP1;P2;durP2;ratioP2
5585;SDS011;2815;54.094;12.112;2023-11-21T00:01:25;8.50;;;4.45;;
5585;SDS011;2815;54.094;12.112;2023-11-21T00:03:54;11.70;;;5.10;;
5585;SDS011;2815;54.094;12.112;2023-11-21T00:06:22;9.45;;;4.88;;
5585;SDS011;2815;54.094;12.112;2023-11-21T00:08:50;9.10;;;4.85;;
5585;SDS011;2815;54.094;12.112;2023-11-21T00:11:19;8.70;;;5.35;;
5585;SDS011;2815;54.094;12.112;2023-11-21T00:13:47;8.05;;;5.00;;
5585;SDS011;2815;54.094;12.112;2023-11-21T00:16:16;7.82;;;5.13;;
5585;SDS011;2815;54.094;12.112;2023-11-21T00:18:46;9.38;;;5.20;;
5585;SDS011;2815;54.094;12.112;2023-11-21T00:21:15;7.68;;;4.65;;
5585;SDS011;2815;54.094;12.112;2023-11-21T00:23:43;9.75;;;5.50;;
5585;SDS011;2815;54.094;12.112;2023-11-21T00:26:11;10.05;;;5.43;;
5585;SDS011;2815;54.094;12.112;2023-11-21T00:28:45;8.43;;;4.97;;
5585;SDS011;2815;54.094;12.112;2023-11-21T00:31:13;7.68;;;5.00;;
5585;SDS011;2815;54.094;12.112;2023-11-21T00:33:42;8.13;;;5.15;;
5585;SDS011;2815;54.094;12.112;2023-11-21T00:36:13;9.00;;;5.30;;
5585;SDS011;2815;54.094;12.112;2023-11-21T00:38:41;8.65;;;5.18;;
5585;SDS011;2815;54.094;12.112;2023-11-21T00:41:09;9.65;;;5.25;;
5585;SDS011;2815;54.094;12.112;2023-11-21T00:43:37;9.65;;;5.43;;
5585;SDS011;2815;54.094;12.112;2023-11-21T00:46:06;8.27;;;5.22;;
5585;SDS011;2815;54.094;12.112;2023-11-21T00:48:35;7.28;;;4.35;;
5585;SDS011;2815;54.094;12.112;2023-11-21T00:51:03;11.70;;;4.97;;
5585;SDS011;2815;54.094;12.112;2023-11-21T00:53:34;8.05;;;4.40;;
5585;SDS011;2815;54.094;12.112;2023-11-21T00:56:02;8.55;;;4.82;;
5585;SDS011;2815;54.094;12.112;2023-11-21T00:58:31;8.90;;;5.43;;
5585;SDS011;2815;54.094;12.112;2023-11-21T01:00:59;8.00;;;4.40;;
5585;SDS011;2815;54.094;12.112;2023-11-21T01:03:27;8.98;;;5.00;;
5585;SDS011;2815;54.094;12.112;2023-11-21T01:05:56;7.68;;;4.43;;
5585;SDS011;2815;54.094;12.112;2023-11-21T01:08:25;8.07;;;5.13;;
5585;SDS011;2815;54.094;12.112;2023-11-21T01:10:55;10.07;;;5.07;;
5585;SDS011;2815;54.094;12.112;2023-11-21T01:13:23;8.25;;;4.50;;
5585;SDS011;2815;54.094;12.112;2023-11-21T01:15:56;8.98;;;5.10;;
5585;SDS011;2815;54.094;12.112;2023-11-21T01:18:24;7.57;;;4.53;;
5585;SDS011;2815;54.094;12.112;2023-11-21T01:20:52;7.93;;;4.90;;
5585;SDS011;2815;54.094;12.112;2023-11-21T01:23:21;9.15;;;4.70;;
5585;SDS011;2815;54.094;12.112;2023-11-21T01:25:49;7.85;;;4.78;;
5585;SDS011;2815;54.094;12.112;2023-11-21T01:28:20;10.57;;;5.20;;
5585;SDS011;2815;54.094;12.112;2023-11-21T01:30:48;7.90;;;4.45;;
5585;SDS011;2815;54.094;12.112;2023-11-21T01:33:17;7.97;;;4.85;;
5585;SDS011;2815;54.094;12.112;2023-11-21T01:35:45;8.13;;;4.40;;
5585;SDS011;2815;54.094;12.112;2023-11-21T01:38:13;8.73;;;4.65;;
5585;SDS011;2815;54.094;12.112;2023-11-21T01:40:44;7.57;;;4.57;;
5585;SDS011;2815;54.094;12.112;2023-11-21T01:43:12;7.88;;;4.30;;
5585;SDS011;2815;54.094;12.112;2023-11-21T01:45:42;7.65;;;4.20;;
5585;SDS011;2815;54.094;12.112;2023-11-21T01:48:12;7.53;;;4.25;;
5585;SDS011;2815;54.094;12.112;2023-11-21T01:50:41;6.00;;;4.15;;
5585;SDS011;2815;54.094;12.112;2023-11-21T01:53:10;6.97;;;4.25;;
5585;SDS011;2815;54.094;12.112;2023-11-21T01:55:40;6.32;;;4.28;;
5585;SDS011;2815;54.094;12.112;2023-11-21T01:58:08;7.35;;;3.97;;
5585;SDS011;2815;54.094;12.112;2023-11-21T02:00:38;7.15;;;4.30;;
5585;SDS011;2815;54.094;12.112;2023-11-21T02:03:07;7.05;;;4.07;;
5585;SDS011;2815;54.094;12.112;2023-11-21T02:05:37;5.93;;;3.72;;
5585;SDS011;2815;54.094;12.112;2023-11-21T02:08:05;8.20;;;4.15;;
5585;SDS011;2815;54.094;12.112;2023-11-21T02:10:36;6.18;;;3.72;;
5585;SDS011;2815;54.094;12.112;2023-11-21T02:13:04;6.30;;;3.60;;
5585;SDS011;2815;54.094;12.112;2023-11-21T02:15:32;6.43;;;4.15;;
5585;SDS011;2815;54.094;12.112;2023-11-21T02:18:02;6.00;;;3.72;;
5585;SDS011;2815;54.094;12.112;2023-11-21T02:20:34;8.25;;;3.80;;
5585;SDS011;2815;54.094;12.112;2023-11-21T02:23:06;5.78;;;3.08;;
5585;SDS011;2815;54.094;12.112;2023-11-21T02:25:35;5.70;;;3.33;;
5585;SDS011;2815;54.094;12.112;2023-11-21T02:28:04;6.07;;;3.95;;
5585;SDS011;2815;54.094;12.112;2023-11-21T02:30:34;6.60;;;3.88;;
5585;SDS011;2815;54.094;12.112;2023-11-21T02:33:03;6.30;;;3.63;;
5585;SDS011;2815;54.094;12.112;2023-11-21T02:35:33;5.05;;;3.58;;
5585;SDS011;2815;54.094;12.112;2023-11-21T02:38:02;5.95;;;3.75;;
5585;SDS011;2815;54.094;12.112;2023-11-21T02:40:31;6.80;;;3.65;;
5585;SDS011;2815;54.094;12.112;2023-11-21T02:42:59;5.70;;;3.40;;
5585;SDS011;2815;54.094;12.112;2023-11-21T02:45:28;7.65;;;3.70;;
5585;SDS011;2815;54.094;12.112;2023-11-21T02:47:56;5.30;;;3.28;;
5585;SDS011;2815;54.094;12.112;2023-11-21T02:50:26;6.00;;;3.50;;
5585;SDS011;2815;54.094;12.112;2023-11-21T02:52:54;6.00;;;3.70;;
5585;SDS011;2815;54.094;12.112;2023-11-21T02:55:24;4.95;;;2.97;;
5585;SDS011;2815;54.094;12.112;2023-11-21T02:57:54;5.13;;;2.97;;
5585;SDS011;2815;54.094;12.112;2023-11-21T03:00:24;5.90;;;3.38;;
5585;SDS011;2815;54.094;12.112;2023-11-21T03:02:54;7.15;;;3.63;;
5585;SDS011;2815;54.094;12.112;2023-11-21T03:05:25;5.25;;;3.05;;
5585;SDS011;2815;54.094;12.112;2023-11-21T03:07:53;5.90;;;3.08;;
5585;SDS011;2815;54.094;12.112;2023-11-21T03:10:22;5.10;;;3.15;;
5585;SDS011;2815;54.094;12.112;2023-11-21T03:12:50;4.65;;;3.17;;
5585;SDS011;2815;54.094;12.112;2023-11-21T03:15:20;6.80;;;3.00;;
5585;SDS011;2815;54.094;12.112;2023-11-21T03:17:49;4.70;;;2.83;;
5585;SDS011;2815;54.094;12.112;2023-11-21T03:20:17;5.22;;;2.95;;
5585;SDS011;2815;54.094;12.112;2023-11-21T03:22:46;5.43;;;2.95;;
5585;SDS011;2815;54.094;12.112;2023-11-21T03:25:14;5.40;;;3.10;;
5585;SDS011;2815;54.094;12.112;2023-11-21T03:27:44;5.93;;;3.30;;
5585;SDS011;2815;54.094;12.112;2023-11-21T03:30:12;4.93;;;3.00;;
5585;SDS011;2815;54.094;12.112;2023-11-21T03:32:42;4.22;;;2.88;;
5585;SDS011;2815;54.094;12.112;2023-11-21T03:35:11;4.82;;;2.22;;
5585;SDS011;2815;54.094;12.112;2023-11-21T03:37:39;4.85;;;2.88;;
5585;SDS011;2815;54.094;12.112;2023-11-21T03:40:09;3.70;;;2.20;;
5585;SDS011;2815;54.094;12.112;2023-11-21T03:42:39;4.88;;;2.85;;
5585;SDS011;2815;54.094;12.112;2023-11-21T03:45:08;5.00;;;2.90;;
5585;SDS011;2815;54.094;12.112;2023-11-21T03:47:36;6.07;;;2.75;;
5585;SDS011;2815;54.094;12.112;2023-11-21T03:50:06;4.68;;;2.40;;
5585;SDS011;2815;54.094;12.112;2023-11-21T03:52:35;3.67;;;2.50;;
5585;SDS011;2815;54.094;12.112;2023-11-21T03:55:04;10.10;;;2.90;;
5585;SDS011;2815;54.094;12.112;2023-11-21T03:57:33;5.15;;;2.67;;
5585;SDS011;2815;54.094;12.112;2023-11-21T04:00:03;4.47;;;2.78;;
5585;SDS011;2815;54.094;12.112;2023-11-21T04:02:38;7.65;;;2.85;;
5585;SDS011;2815;54.094;12.112;2023-11-21T04:05:08;2.38;;;1.98;;
5585;SDS011;2815;54.094;12.112;2023-11-21T04:07:38;2.83;;;2.13;;
5585;SDS011;2815;54.094;12.112;2023-11-21T04:10:07;3.70;;;2.47;;
5585;SDS011;2815;54.094;12.112;2023-11-21T04:12:36;4.13;;;2.55;;
5585;SDS011;2815;54.094;12.112;2023-11-21T04:15:05;5.70;;;3.30;;
5585;SDS011;2815;54.094;12.112;2023-11-21T04:17:35;3.47;;;2.17;;
5585;SDS011;2815;54.094;12.112;2023-11-21T04:20:04;4.40;;;2.92;;
5585;SDS011;2815;54.094;12.112;2023-11-21T04:22:38;6.18;;;3.20;;
5585;SDS011;2815;54.094;12.112;2023-11-21T04:25:12;3.20;;;2.22;;
5585;SDS011;2815;54.094;12.112;2023-11-21T04:27:42;4.40;;;2.33;;
5585;SDS011;2815;54.094;12.112;2023-11-21T04:30:12;3.50;;;2.13;;
5585;SDS011;2815;54.094;12.112;2023-11-21T04:32:40;4.15;;;2.60;;
5585;SDS011;2815;54.094;12.112;2023-11-21T04:35:09;3.40;;;2.60;;
5585;SDS011;2815;54.094;12.112;2023-11-21T04:37:39;5.22;;;2.45;;
5585;SDS011;2815;54.094;12.112;2023-11-21T04:40:09;3.85;;;2.40;;
5585;SDS011;2815;54.094;12.112;2023-11-21T04:42:37;4.38;;;2.80;;
5585;SDS011;2815;54.094;12.112;2023-11-21T04:45:06;4.60;;;2.58;;
5585;SDS011;2815;54.094;12.112;2023-11-21T04:47:39;8.02;;;2.70;;
5585;SDS011;2815;54.094;12.112;2023-11-21T04:50:07;6.05;;;2.53;;
5585;SDS011;2815;54.094;12.112;2023-11-21T04:52:36;6.55;;;2.80;;
5585;SDS011;2815;54.094;12.112;2023-11-21T04:55:06;3.20;;;2.15;;
5585;SDS011;2815;54.094;12.112;2023-11-21T04:57:37;4.38;;;2.75;;
5585;SDS011;2815;54.094;12.112;2023-11-21T05:00:06;4.18;;;2.42;;
5585;SDS011;2815;54.094;12.112;2023-11-21T05:02:35;3.50;;;2.70;;
5585;SDS011;2815;54.094;12.112;2023-11-21T05:05:05;3.85;;;2.58;;
5585;SDS011;2815;54.094;12.112;2023-11-21T05:07:34;4.78;;;2.58;;
5585;SDS011;2815;54.094;12.112;2023-11-21T05:10:03;4.65;;;3.20;;
5585;SDS011;2815;54.094;12.112;2023-11-21T05:12:39;6.22;;;3.13;;
5585;SDS011;2815;54.094;12.112;2023-11-21T05:15:08;4.63;;;3.08;;
5585;SDS011;2815;54.094;12.112;2023-11-21T05:17:37;5.68;;;2.90;;
5585;SDS011;2815;54.094;12.112;2023-11-21T05:20:09;7.13;;;2.75;;
5585;SDS011;2815;54.094;12.112;2023-11-21T05:22:38;4.10;;;2.97;;
5585;SDS011;2815;54.094;12.112;2023-11-21T05:25:08;7.20;;;3.22;;
5585;SDS011;2815;54.094;12.112;2023-11-21T05:27:38;4.97;;;2.90;;
5585;SDS011;2815;54.094;12.112;2023-11-21T05:30:06;5.53;;;3.38;;
5585;SDS011;2815;54.094;12.112;2023-11-21T05:32:38;6.85;;;3.55;;
5585;SDS011;2815;54.094;12.112;2023-11-21T05:35:07;5.07;;;2.95;;
5585;SDS011;2815;54.094;12.112;2023-11-21T05:37:38;4.97;;;3.13;;
5585;SDS011;2815;54.094;12.112;2023-11-21T05:40:07;6.72;;;3.03;;
5585;SDS011;2815;54.094;12.112;2023-11-21T05:42:38;5.97;;;3.05;;
5585;SDS011;2815;54.094;12.112;2023-11-21T05:45:07;5.30;;;2.78;;
5585;SDS011;2815;54.094;12.112;2023-11-21T05:47:38;4.82;;;3.47;;
5585;SDS011;2815;54.094;12.112;2023-11-21T05:50:08;8.88;;;3.00;;
5585;SDS011;2815;54.094;12.112;2023-11-21T05:52:39;4.75;;;3.05;;
5585;SDS011;2815;54.094;12.112;2023-11-21T05:55:07;6.15;;;3.10;;
5585;SDS011;2815;54.094;12.112;2023-11-21T05:57:38;5.57;;;2.88;;
5585;SDS011;2815;54.094;12.112;2023-11-21T06:00:07;7.95;;;3.10;;
5585;SDS011;2815;54.094;12.112;2023-11-21T06:02:42;4.97;;;3.13;;
5585;SDS011;2815;54.094;12.112;2023-11-21T06:05:10;6.35;;;3.15;;
5585;SDS011;2815;54.094;12.112;2023-11-21T06:07:38;5.28;;;3.30;;
5585;SDS011;2815;54.094;12.112;2023-11-21T06:10:07;5.93;;;3.30;;
5585;SDS011;2815;54.094;12.112;2023-11-21T06:12:39;5.22;;;3.17;;
5585;SDS011;2815;54.094;12.112;2023-11-21T06:15:10;5.05;;;3.08;;
5585;SDS011;2815;54.094;12.112;2023-11-21T06:17:41;5.07;;;3.05;;
5585;SDS011;2815;54.094;12.112;2023-11-21T06:20:10;8.20;;;2.83;;
5585;SDS011;2815;54.094;12.112;2023-11-21T06:22:41;4.95;;;3.03;;
5585;SDS011;2815;54.094;12.112;2023-11-21T06:25:13;7.07;;;2.97;;
5585;SDS011;2815;54.094;12.112;2023-11-21T06:27:42;5.30;;;2.67;;
5585;SDS011;2815;54.094;12.112;2023-11-21T06:30:11;5.43;;;2.85;;
5585;SDS011;2815;54.094;12.112;2023-11-21T06:32:41;4.13;;;2.53;;
5585;SDS011;2815;54.094;12.112;2023-11-21T06:37:43;4.53;;;3.00;;
5585;SDS011;2815;54.094;12.112;2023-11-21T06:40:17;6.55;;;3.42;;
5585;SDS011;2815;54.094;12.112;2023-11-21T06:42:47;9.05;;;3.45;;
5585;SDS011;2815;54.094;12.112;2023-11-21T06:45:15;4.20;;;2.90;;
5585;SDS011;2815;54.094;12.112;2023-11-21T06:47:44;5.60;;;3.33;;
5585;SDS011;2815;54.094;12.112;2023-11-21T06:50:13;5.75;;;3.30;;
5585;SDS011;2815;54.094;12.112;2023-11-21T06:52:41;10.23;;;3.28;;
5585;SDS011;2815;54.094;12.112;2023-11-21T06:55:10;5.88;;;3.28;;
5585;SDS011;2815;54.094;12.112;2023-11-21T06:57:40;6.97;;;3.35;;
5585;SDS011;2815;54.094;12.112;2023-11-21T07:00:09;5.88;;;3.00;;
5585;SDS011;2815;54.094;12.112;2023-11-21T07:02:38;6.78;;;3.40;;
5585;SDS011;2815;54.094;12.112;2023-11-21T07:05:07;4.32;;;2.90;;
5585;SDS011;2815;54.094;12.112;2023-11-21T07:07:35;5.35;;;3.25;;
5585;SDS011;2815;54.094;12.112;2023-11-21T07:10:05;4.22;;;2.95;;
5585;SDS011;2815;54.094;12.112;2023-11-21T07:12:35;4.85;;;3.10;;
5585;SDS011;2815;54.094;12.112;2023-11-21T07:15:05;7.18;;;3.53;;
5585;SDS011;2815;54.094;12.112;2023-11-21T07:17:36;8.15;;;3.67;;
5585;SDS011;2815;54.094;12.112;2023-11-21T07:20:07;5.70;;;3.10;;
5585;SDS011;2815;54.094;12.112;2023-11-21T07:22:38;7.20;;;3.17;;
5585;SDS011;2815;54.094;12.112;2023-11-21T07:25:07;5.75;;;3.53;;
5585;SDS011;2815;54.094;12.112;2023-11-21T07:27:36;4.88;;;3.28;;
5585;SDS011;2815;54.094;12.112;2023-11-21T07:30:06;4.45;;;2.72;;
5585;SDS011;2815;54.094;12.112;2023-11-21T07:32:37;6.20;;;3.50;;
5585;SDS011;2815;54.094;12.112;2023-11-21T07:35:07;6.85;;;3.22;;
5585;SDS011;2815;54.094;12.112;2023-11-21T07:37:36;5.32;;;3.17;;
5585;SDS011;2815;54.094;12.112;2023-11-21T07:40:06;6.93;;;3.45;;
5585;SDS011;2815;54.094;12.112;2023-11-21T07:42:36;7.70;;;4.15;;
5585;SDS011;2815;54.094;12.112;2023-11-21T07:45:06;5.70;;;3.40;;
5585;SDS011;2815;54.094;12.112;2023-11-21T07:47:35;6.60;;;3.65;;
5585;SDS011;2815;54.094;12.112;2023-11-21T07:50:06;5.90;;;3.50;;
5585;SDS011;2815;54.094;12.112;2023-11-21T07:52:36;7.82;;;3.92;;
5585;SDS011;2815;54.094;12.112;2023-11-21T07:55:04;8.40;;;3.22;;
5585;SDS011;2815;54.094;12.112;2023-11-21T07:57:34;8.57;;;3.70;;
5585;SDS011;2815;54.094;12.112;2023-11-21T08:00:03;5.00;;;3.22;;
5585;SDS011;2815;54.094;12.112;2023-11-21T08:02:39;5.43;;;3.50;;
5585;SDS011;2815;54.094;12.112;2023-11-21T08:05:10;6.07;;;3.47;;
5585;SDS011;2815;54.094;12.112;2023-11-21T08:07:51;5.63;;;3.25;;
5585;SDS011;2815;54.094;12.112;2023-11-21T08:10:19;5.25;;;3.30;;
5585;SDS011;2815;54.094;12.112;2023-11-21T08:12:49;5.30;;;3.40;;
5585;SDS011;2815;54.094;12.112;2023-11-21T08:15:19;7.72;;;3.38;;
5585;SDS011;2815;54.094;12.112;2023-11-21T08:17:48;8.95;;;4.10;;
5585;SDS011;2815;54.094;12.112;2023-11-21T08:20:17;6.38;;;3.00;;
5585;SDS011;2815;54.094;12.112;2023-11-21T08:22:46;6.20;;;3.10;;
5585;SDS011;2815;54.094;12.112;2023-11-21T08:25:15;5.47;;;3.30;;
5585;SDS011;2815;54.094;12.112;2023-11-21T08:27:48;5.00;;;3.22;;
5585;SDS011;2815;54.094;12.112;2023-11-21T08:30:16;6.28;;;3.10;;
5585;SDS011;2815;54.094;12.112;2023-11-21T08:32:47;7.15;;;3.63;;
5585;SDS011;2815;54.094;12.112;2023-11-21T08:35:16;8.80;;;3.58;;
5585;SDS011;2815;54.094;12.112;2023-11-21T08:37:45;12.43;;;4.20;;
5585;SDS011;2815;54.094;12.112;2023-11-21T08:40:14;6.82;;;3.00;;
5585;SDS011;2815;54.094;12.112;2023-11-21T08:42:44;6.25;;;2.75;;
5585;SDS011;2815;54.094;12.112;2023-11-21T08:45:13;9.18;;;2.53;;
5585;SDS011;2815;54.094;12.112;2023-11-21T08:47:42;7.88;;;3.55;;
5585;SDS011;2815;54.094;12.112;2023-11-21T08:50:13;9.63;;;3.53;;
5585;SDS011;2815;54.094;12.112;2023-11-21T08:52:42;5.88;;;3.13;;
5585;SDS011;2815;54.094;12.112;2023-11-21T08:55:13;7.13;;;2.90;;
5585;SDS011;2815;54.094;12.112;2023-11-21T08:57:43;4.57;;;2.90;;
5585;SDS011;2815;54.094;12.112;2023-11-21T09:00:12;7.13;;;3.63;;
5585;SDS011;2815;54.094;12.112;2023-11-21T09:02:44;5.90;;;3.63;;
5585;SDS011;2815;54.094;12.112;2023-11-21T09:05:14;10.32;;;3.15;;
5585;SDS011;2815;54.094;12.112;2023-11-21T09:07:43;5.18;;;2.90;;
5585;SDS011;2815;54.094;12.112;2023-11-21T09:10:13;5.38;;;2.75;;
5585;SDS011;2815;54.094;12.112;2023-11-21T09:12:41;7.03;;;3.53;;
5585;SDS011;2815;54.094;12.112;2023-11-21T09:15:10;5.57;;;3.42;;
5585;SDS011;2815;54.094;12.112;2023-11-21T09:17:39;5.80;;;2.75;;
5585;SDS011;2815;54.094;12.112;2023-11-21T09:20:08;7.32;;;3.65;;
5585;SDS011;2815;54.094;12.112;2023-11-21T09:22:39;3.50;;;2.45;;
5585;SDS011;2815;54.094;12.112;2023-11-21T09:25:09;4.57;;;2.55;;
5585;SDS011;2815;54.094;12.112;2023-11-21T09:27:37;6.28;;;2.97;;
5585;SDS011;2815;54.094;12.112;2023-11-21T09:30:06;4.53;;;2.90;;
5585;SDS011;2815;54.094;12.112;2023-11-21T09:32:37;5.72;;;3.33;;
5585;SDS011;2815;54.094;12.112;2023-11-21T09:35:08;4.20;;;2.63;;
5585;SDS011;2815;54.094;12.112;2023-11-21T09:37:37;5.65;;;3.05;;
5585;SDS011;2815;54.094;12.112;2023-11-21T09:40:09;7.47;;;3.35;;
5585;SDS011;2815;54.094;12.112;2023-11-21T09:42:43;5.85;;;3.50;;
5585;SDS011;2815;54.094;12.112;2023-11-21T09:45:21;7.95;;;3.58;;
5585;SDS011;2815;54.094;12.112;2023-11-21T09:47:53;7.60;;;2.95;;
5585;SDS011;2815;54.094;12.112;2023-11-21T09:50:22;4.43;;;2.53;;
5585;SDS011;2815;54.094;12.112;2023-11-21T09:53:02;9.60;;;3.20;;
5585;SDS011;2815;54.094;12.112;2023-11-21T09:55:43;5.60;;;2.92;;
5585;SDS011;2815;54.094;12.112;2023-11-21T09:58:22;7.00;;;2.70;;
5585;SDS011;2815;54.094;12.112;2023-11-21T10:00:52;4.75;;;2.60;;
5585;SDS011;2815;54.094;12.112;2023-11-21T10:03:21;3.67;;;2.17;;
5585;SDS011;2815;54.094;12.112;2023-11-21T10:05:50;6.88;;;2.80;;
5585;SDS011;2815;54.094;12.112;2023-11-21T10:08:21;8.45;;;2.33;;
5585;SDS011;2815;54.094;12.112;2023-11-21T10:10:53;6.03;;;2.30;;
5585;SDS011;2815;54.094;12.112;2023-11-21T10:13:23;6.10;;;2.50;;
5585;SDS011;2815;54.094;12.112;2023-11-21T10:15:52;9.30;;;2.17;;
5585;SDS011;2815;54.094;12.112;2023-11-21T10:18:21;3.33;;;2.00;;
5585;SDS011;2815;54.094;12.112;2023-11-21T10:20:52;4.22;;;2.60;;
5585;SDS011;2815;54.094;12.112;2023-11-21T10:23:21;4.90;;;2.63;;
5585;SDS011;2815;54.094;12.112;2023-11-21T10:25:51;3.58;;;2.08;;
5585;SDS011;2815;54.094;12.112;2023-11-21T10:28:36;2.78;;;1.55;;
5585;SDS011;2815;54.094;12.112;2023-11-21T10:31:06;4.30;;;2.47;;
5585;SDS011;2815;54.094;12.112;2023-11-21T10:33:36;4.55;;;2.15;;
5585;SDS011;2815;54.094;12.112;2023-11-21T10:36:04;3.75;;;2.03;;
5585;SDS011;2815;54.094;12.112;2023-11-21T10:38:37;4.45;;;2.47;;
5585;SDS011;2815;54.094;12.112;2023-11-21T10:41:13;4.85;;;2.30;;
5585;SDS011;2815;54.094;12.112;2023-11-21T10:43:43;3.65;;;2.20;;
5585;SDS011;2815;54.094;12.112;2023-11-21T10:46:11;5.35;;;1.90;;
5585;SDS011;2815;54.094;12.112;2023-11-21T10:48:41;5.90;;;2.03;;
5585;SDS011;2815;54.094;12.112;2023-11-21T10:51:09;6.93;;;2.60;;
5585;SDS011;2815;54.094;12.112;2023-11-21T10:53:38;3.83;;;1.95;;
5585;SDS011;2815;54.094;12.112;2023-11-21T10:56:10;3.22;;;2.15;;
5585;SDS011;2815;54.094;12.112;2023-11-21T10:58:48;3.45;;;2.28;;
5585;SDS011;2815;54.094;12.112;2023-11-21T11:01:17;3.42;;;2.17;;
5585;SDS011;2815;54.094;12.112;2023-11-21T11:03:48;2.90;;;1.92;;
5585;SDS011;2815;54.094;12.112;2023-11-21T11:06:18;3.65;;;1.90;;
5585;SDS011;2815;54.094;12.112;2023-11-21T11:08:46;5.95;;;1.92;;
5585;SDS011;2815;54.094;12.112;2023-11-21T11:11:16;6.25;;;1.73;;
5585;SDS011;2815;54.094;12.112;2023-11-21T11:13:45;1.48;;;1.20;;
5585;SDS011;2815;54.094;12.112;2023-11-21T11:16:14;5.53;;;1.52;;
5585;SDS011;2815;54.094;12.112;2023-11-21T11:18:45;4.82;;;1.45;;
5585;SDS011;2815;54.094;12.112;2023-11-21T11:21:22;3.38;;;1.77;;
5585;SDS011;2815;54.094;12.112;2023-11-21T11:23:59;4.28;;;1.90;;
5585;SDS011;2815;54.094;12.112;2023-11-21T11:26:42;3.03;;;1.85;;
5585;SDS011;2815;54.094;12.112;2023-11-21T11:29:17;4.10;;;1.80;;
5585;SDS011;2815;54.094;12.112;2023-11-21T11:31:52;3.13;;;1.65;;
5585;SDS011;2815;54.094;12.112;2023-11-21T11:34:28;2.92;;;1.42;;
5585;SDS011;2815;54.094;12.112;2023-11-21T11:36:59;2.42;;;1.40;;
5585;SDS011;2815;54.094;12.112;2023-11-21T11:39:29;2.58;;;1.48;;
5585;SDS011;2815;54.094;12.112;2023-11-21T11:42:02;2.85;;;1.75;;
5585;SDS011;2815;54.094;12.112;2023-11-21T11:44:47;2.85;;;1.60;;
5585;SDS011;2815;54.094;12.112;2023-11-21T11:47:20;2.08;;;1.23;;
5585;SDS011;2815;54.094;12.112;2023-11-21T11:49:56;3.47;;;1.77;;
5585;SDS011;2815;54.094;12.112;2023-11-21T11:52:36;1.70;;;1.27;;
5585;SDS011;2815;54.094;12.112;2023-11-21T11:55:07;3.45;;;1.63;;
5585;SDS011;2815;54.094;12.112;2023-11-21T11:57:39;1.63;;;1.23;;
5585;SDS011;2815;54.094;12.112;2023-11-21T12:00:12;2.60;;;1.15;;
5585;SDS011;2815;54.094;12.112;2023-11-21T12:02:46;2.97;;;1.70;;
5585;SDS011;2815;54.094;12.112;2023-11-21T12:05:16;7.18;;;1.60;;
5585;SDS011;2815;54.094;12.112;2023-11-21T12:07:46;2.50;;;1.70;;
5585;SDS011;2815;54.094;12.112;2023-11-21T12:10:17;2.20;;;1.15;;
5585;SDS011;2815;54.094;12.112;2023-11-21T12:12:47;3.47;;;1.80;;
5585;SDS011;2815;54.094;12.112;2023-11-21T12:15:16;4.47;;;1.58;;
5585;SDS011;2815;54.094;12.112;2023-11-21T12:17:45;2.90;;;1.48;;
5585;SDS011;2815;54.094;12.112;2023-11-21T12:20:14;4.28;;;1.75;;
5585;SDS011;2815;54.094;12.112;2023-11-21T12:22:44;3.25;;;1.50;;
5585;SDS011;2815;54.094;12.112;2023-11-21T12:25:16;2.30;;;1.50;;
5585;SDS011;2815;54.094;12.112;2023-11-21T12:27:47;4.57;;;1.20;;
5585;SDS011;2815;54.094;12.112;2023-11-21T12:30:17;1.52;;;1.00;;
5585;SDS011;2815;54.094;12.112;2023-11-21T12:32:48;5.10;;;1.65;;
5585;SDS011;2815;54.094;12.112;2023-11-21T12:35:18;2.55;;;1.45;;
5585;SDS011;2815;54.094;12.112;2023-11-21T12:37:48;2.65;;;1.30;;
5585;SDS011;2815;54.094;12.112;2023-11-21T12:40:17;2.72;;;1.40;;
5585;SDS011;2815;54.094;12.112;2023-11-21T12:42:48;1.92;;;1.40;;
5585;SDS011;2815;54.094;12.112;2023-11-21T12:45:19;6.70;;;1.95;;
5585;SDS011;2815;54.094;12.112;2023-11-21T12:47:48;2.13;;;1.52;;
5585;SDS011;2815;54.094;12.112;2023-11-21T12:50:21;1.73;;;1.02;;
5585;SDS011;2815;54.094;12.112;2023-11-21T12:52:50;2.58;;;1.70;;
5585;SDS011;2815;54.094;12.112;2023-11-21T12:55:20;2.45;;;1.75;;
5585;SDS011;2815;54.094;12.112;2023-11-21T12:57:51;2.75;;;1.23;;
5585;SDS011;2815;54.094;12.112;2023-11-21T13:00:27;5.47;;;1.73;;
5585;SDS011;2815;54.094;12.112;2023-11-21T13:02:57;6.28;;;1.90;;
5585;SDS011;2815;54.094;12.112;2023-11-21T13:05:27;4.25;;;1.73;;
5585;SDS011;2815;54.094;12.112;2023-11-21T13:07:56;2.13;;;1.75;;
5585;SDS011;2815;54.094;12.112;2023-11-21T13:10:26;3.42;;;1.92;;
5585;SDS011;2815;54.094;12.112;2023-11-21T13:12:59;3.83;;;1.70;;
5585;SDS011;2815;54.094;12.112;2023-11-21T13:15:27;3.10;;;1.67;;
5585;SDS011;2815;54.094;12.112;2023-11-21T13:18:01;3.50;;;1.67;;
5585;SDS011;2815;54.094;12.112;2023-11-21T13:20:30;3.17;;;1.70;;
5585;SDS011;2815;54.094;12.112;2023-11-21T13:22:59;5.43;;;1.92;;
5585;SDS011;2815;54.094;12.112;2023-11-21T13:25:28;3.67;;;1.75;;
5585;SDS011;2815;54.094;12.112;2023-11-21T13:27:59;2.42;;;1.80;;
5585;SDS011;2815;54.094;12.112;2023-11-21T13:30:29;3.47;;;1.50;;
5585;SDS011;2815;54.094;12.112;2023-11-21T13:33:01;4.30;;;1.67;;
5585;SDS011;2815;54.094;12.112;2023-11-21T13:35:34;1.95;;;1.13;;
5585;SDS011;2815;54.094;12.112;2023-11-21T13:38:09;2.25;;;1.63;;
5585;SDS011;2815;54.094;12.112;2023-11-21T13:40:39;1.42;;;1.30;;
5585;SDS011;2815;54.094;12.112;2023-11-21T13:43:13;2.80;;;1.77;;
5585;SDS011;2815;54.094;12.112;2023-11-21T13:45:43;2.55;;;1.77;;
5585;SDS011;2815;54.094;12.112;2023-11-21T13:48:12;4.97;;;1.60;;
5585;SDS011;2815;54.094;12.112;2023-11-21T13:50:41;3.83;;;1.63;;
5585;SDS011;2815;54.094;12.112;2023-11-21T13:53:15;2.42;;;1.48;;
5585;SDS011;2815;54.094;12.112;2023-11-21T13:55:48;3.00;;;1.63;;
5585;SDS011;2815;54.094;12.112;2023-11-21T13:58:19;2.92;;;1.40;;
5585;SDS011;2815;54.094;12.112;2023-11-21T14:00:52;2.78;;;1.63;;
5585;SDS011;2815;54.094;12.112;2023-11-21T14:03:23;3.97;;;1.48;;
5585;SDS011;2815;54.094;12.112;2023-11-21T14:06:06;3.08;;;1.63;;
5585;SDS011;2815;54.094;12.112;2023-11-21T14:08:41;2.17;;;1.27;;
5585;SDS011;2815;54.094;12.112;2023-11-21T14:11:09;2.33;;;1.40;;
5585;SDS011;2815;54.094;12.112;2023-11-21T14:13:45;2.33;;;1.55;;
5585;SDS011;2815;54.094;12.112;2023-11-21T14:16:15;3.40;;;1.55;;
5585;SDS011;2815;54.094;12.112;2023-11-21T14:18:44;1.83;;;1.30;;
5585;SDS011;2815;54.094;12.112;2023-11-21T14:21:22;5.65;;;1.30;;
5585;SDS011;2815;54.094;12.112;2023-11-21T14:23:50;4.30;;;2.00;;
5585;SDS011;2815;54.094;12.112;2023-11-21T14:26:18;4.35;;;1.73;;
5585;SDS011;2815;54.094;12.112;2023-11-21T14:28:49;2.70;;;1.80;;
5585;SDS011;2815;54.094;12.112;2023-11-21T14:31:18;4.03;;;1.92;;
5585;SDS011;2815;54.094;12.112;2023-11-21T14:33:46;2.78;;;1.60;;
5585;SDS011;2815;54.094;12.112;2023-11-21T14:36:14;7.03;;;1.70;;
5585;SDS011;2815;54.094;12.112;2023-11-21T14:38:43;2.42;;;1.65;;
5585;SDS011;2815;54.094;12.112;2023-11-21T14:41:12;3.25;;;1.80;;
5585;SDS011;2815;54.094;12.112;2023-11-21T14:43:41;5.40;;;1.70;;
5585;SDS011;2815;54.094;12.112;2023-11-21T14:46:11;2.15;;;1.60;;
5585;SDS011;2815;54.094;12.112;2023-11-21T14:48:44;3.67;;;1.70;;
5585;SDS011;2815;54.094;12.112;2023-11-21T14:51:19;2.30;;;1.40;;
5585;SDS011;2815;54.094;12.112;2023-11-21T14:53:54;3.63;;;1.63;;
5585;SDS011;2815;54.094;12.112;2023-11-21T14:56:26;2.40;;;1.73;;
5585;SDS011;2815;54.094;12.112;2023-11-21T14:58:57;3.28;;;1.55;;
5585;SDS011;2815;54.094;12.112;2023-11-21T15:01:32;3.22;;;1.75;;
5585;SDS011;2815;54.094;12.112;2023-11-21T15:04:13;2.40;;;1.55;;
5585;SDS011;2815;54.094;12.112;2023-11-21T15:06:56;7.45;;;2.08;;
5585;SDS011;2815;54.094;12.112;2023-11-21T15:09:25;3.80;;;1.67;;
5585;SDS011;2815;54.094;12.112;2023-11-21T15:12:08;3.05;;;1.35;;
5585;SDS011;2815;54.094;12.112;2023-11-21T15:14:44;2.90;;;1.52;;
5585;SDS011;2815;54.094;12.112;2023-11-21T15:17:16;1.75;;;1.20;;
5585;SDS011;2815;54.094;12.112;2023-11-21T15:19:49;3.22;;;1.38;;
5585;SDS011;2815;54.094;12.112;2023-11-21T15:22:18;6.57;;;2.17;;